SGL weather

Danilo Atienza Air Base
Cavite City, Cavite Province, Philippines

Public forecast

Using degrees Celsius for public forecast. Weather courtesy of forecast.io.

Closest aviation weather report (METAR) to Danilo Atienza Air Base

Closest report is Ninoy Aquino International Airport, 6.8 nm (12.6 km) E. Retrieved 2019/10/16 18:00 UTC (30 minutes ago):

RPLL 161800Z VRB02KT 9999 FEW025 27/23 Q1010 NOSIG RMK A2983

Closest aviation forecast (TAF) to Danilo Atienza Air Base

Closest forecast is Ninoy Aquino International Airport, 6.8 nm (12.6 km) E. Retrieved 2019/10/16 18:00 UTC (30 minutes ago):

TAF RPLL 161700Z 1618/1724 10004KT 9999 FEW025 SCT100 TX33/1706Z TN26/1621Z TEMPO 1700/1706 VRB02KT SCT023 BKN100 TEMPO 1712/1718 11009KT SCT023 BKN100